sensor_id;sensor_type;location;lat;lon;timestamp;pressure;altitude;pressure_sealevel;temperature;humidity
7018;BME280;3549;42.162;24.726;2023-01-08T00:01:42;47588.28;;;-141.97;85.03
7018;BME280;3549;42.162;24.726;2023-01-08T00:04:08;47755.50;;;-141.97;84.85
7018;BME280;3549;42.162;24.726;2023-01-08T00:06:33;47653.63;;;-141.97;85.47
7018;BME280;3549;42.162;24.726;2023-01-08T00:08:59;47649.78;;;-141.97;85.56
7018;BME280;3549;42.162;24.726;2023-01-08T00:11:24;47676.69;;;-141.97;85.70
7018;BME280;3549;42.162;24.726;2023-01-08T00:13:50;47674.78;;;-141.97;85.92
7018;BME280;3549;42.162;24.726;2023-01-08T00:16:17;47611.34;;;-141.97;85.42
7018;BME280;3549;42.162;24.726;2023-01-08T00:18:44;47690.16;;;-141.97;85.95
7018;BME280;3549;42.162;24.726;2023-01-08T00:21:10;47661.31;;;-141.97;86.46
7018;BME280;3549;42.162;24.726;2023-01-08T00:23:36;47709.38;;;-141.97;86.58
7018;BME280;3549;42.162;24.726;2023-01-08T00:26:03;47636.31;;;-141.97;86.14
7018;BME280;3549;42.162;24.726;2023-01-08T00:28:29;47572.91;;;-141.97;86.23
7018;BME280;3549;42.162;24.726;2023-01-08T00:30:55;47603.66;;;-141.97;85.89
7018;BME280;3549;42.162;24.726;2023-01-08T00:33:20;47703.59;;;-141.97;85.28
7018;BME280;3549;42.162;24.726;2023-01-08T00:35:46;47686.31;;;-141.97;85.56
7018;BME280;3549;42.162;24.726;2023-01-08T00:38:11;47595.97;;;-141.97;85.74
7018;BME280;3549;42.162;24.726;2023-01-08T00:40:37;47561.38;;;-141.97;85.50
7018;BME280;3549;42.162;24.726;2023-01-08T00:43:04;47728.59;;;-141.97;85.22
7018;BME280;3549;42.162;24.726;2023-01-08T00:45:29;47676.69;;;-141.97;85.21
7018;BME280;3549;42.162;24.726;2023-01-08T00:47:55;47726.66;;;-141.97;84.99
7018;BME280;3549;42.162;24.726;2023-01-08T00:50:20;47638.25;;;-141.97;85.80
7018;BME280;3549;42.162;24.726;2023-01-08T00:52:45;47659.38;;;-141.97;85.68
7018;BME280;3549;42.162;24.726;2023-01-08T00:55:11;47665.16;;;-141.97;85.27
7018;BME280;3549;42.162;24.726;2023-01-08T00:57:37;47732.44;;;-141.97;85.99
7018;BME280;3549;42.162;24.726;2023-01-08T01:00:05;47665.16;;;-141.97;86.03
7018;BME280;3549;42.162;24.726;2023-01-08T01:02:33;47724.75;;;-141.97;85.48
7018;BME280;3549;42.162;24.726;2023-01-08T01:04:59;47692.06;;;-141.97;85.25
7018;BME280;3549;42.162;24.726;2023-01-08T01:07:24;47695.91;;;-141.97;84.71
7018;BME280;3549;42.162;24.726;2023-01-08T01:09:50;47726.66;;;-141.97;85.15
7018;BME280;3549;42.162;24.726;2023-01-08T01:12:15;47640.16;;;-141.97;84.92
7018;BME280;3549;42.162;24.726;2023-01-08T01:14:41;47730.50;;;-141.97;85.30
7018;BME280;3549;42.162;24.726;2023-01-08T01:17:06;47676.69;;;-141.97;85.33
7018;BME280;3549;42.162;24.726;2023-01-08T01:19:32;47644.00;;;-141.97;85.19
7018;BME280;3549;42.162;24.726;2023-01-08T01:21:57;47649.78;;;-141.97;85.35
7018;BME280;3549;42.162;24.726;2023-01-08T01:24:23;47684.38;;;-141.97;85.68
7018;BME280;3549;42.162;24.726;2023-01-08T01:26:55;47690.16;;;-141.97;85.91
7018;BME280;3549;42.162;24.726;2023-01-08T01:29:22;47665.16;;;-141.97;86.23
7018;BME280;3549;42.162;24.726;2023-01-08T01:31:47;47669.00;;;-141.97;86.35
7018;BME280;3549;42.162;24.726;2023-01-08T01:34:13;47661.31;;;-141.97;86.14
7018;BME280;3549;42.162;24.726;2023-01-08T01:36:38;47705.53;;;-141.97;86.47
7018;BME280;3549;42.162;24.726;2023-01-08T01:39:04;47680.53;;;-141.97;86.40
7018;BME280;3549;42.162;24.726;2023-01-08T01:41:39;47718.97;;;-141.97;86.95
7018;BME280;3549;42.162;24.726;2023-01-08T01:44:43;47732.44;;;-141.97;86.57
7018;BME280;3549;42.162;24.726;2023-01-08T01:47:24;47674.78;;;-141.97;86.02
7018;BME280;3549;42.162;24.726;2023-01-08T01:50:01;47701.69;;;-141.97;85.81
7018;BME280;3549;42.162;24.726;2023-01-08T01:52:29;47672.84;;;-141.97;86.44
7018;BME280;3549;42.162;24.726;2023-01-08T01:54:59;47615.19;;;-141.97;87.04
7018;BME280;3549;42.162;24.726;2023-01-08T01:57:26;47657.47;;;-141.97;86.86
7018;BME280;3549;42.162;24.726;2023-01-08T01:59:53;47742.03;;;-141.97;86.99
7018;BME280;3549;42.162;24.726;2023-01-08T02:02:19;47742.03;;;-141.97;86.98
7018;BME280;3549;42.162;24.726;2023-01-08T02:04:45;47674.78;;;-141.97;86.54
7018;BME280;3549;42.162;24.726;2023-01-08T02:07:15;47680.53;;;-141.97;86.46
7018;BME280;3549;42.162;24.726;2023-01-08T02:12:35;47640.16;;;-141.97;85.33
7018;BME280;3549;42.162;24.726;2023-01-08T02:15:26;47663.22;;;-141.97;84.95
7018;BME280;3549;42.162;24.726;2023-01-08T02:18:05;47649.78;;;-141.97;84.32
7018;BME280;3549;42.162;24.726;2023-01-08T02:21:00;47690.16;;;-141.97;84.43
7018;BME280;3549;42.162;24.726;2023-01-08T02:23:36;47745.88;;;-141.97;84.52
7018;BME280;3549;42.162;24.726;2023-01-08T02:26:29;47711.28;;;-141.97;84.32
7018;BME280;3549;42.162;24.726;2023-01-08T02:29:00;47711.28;;;-141.97;83.97
7018;BME280;3549;42.162;24.726;2023-01-08T02:31:30;47665.16;;;-141.97;83.64
7018;BME280;3549;42.162;24.726;2023-01-08T02:33:56;47757.41;;;-141.97;83.45
7018;BME280;3549;42.162;24.726;2023-01-08T02:36:23;47665.16;;;-141.97;83.25
7018;BME280;3549;42.162;24.726;2023-01-08T02:41:35;47695.91;;;-141.97;84.03
7018;BME280;3549;42.162;24.726;2023-01-08T02:44:12;47699.75;;;-141.97;84.97
7018;BME280;3549;42.162;24.726;2023-01-08T02:46:41;47684.38;;;-141.97;84.82
7018;BME280;3549;42.162;24.726;2023-01-08T02:49:11;47642.09;;;-141.97;84.44
7018;BME280;3549;42.162;24.726;2023-01-08T02:51:44;47626.72;;;-141.97;84.16
7018;BME280;3549;42.162;24.726;2023-01-08T02:54:16;47707.44;;;-141.97;84.25
7018;BME280;3549;42.162;24.726;2023-01-08T02:56:45;47630.56;;;-141.97;84.65
7018;BME280;3549;42.162;24.726;2023-01-08T02:59:14;47692.06;;;-141.97;84.45
7018;BME280;3549;42.162;24.726;2023-01-08T03:01:40;47772.78;;;-141.97;84.16
7018;BME280;3549;42.162;24.726;2023-01-08T03:04:16;47734.34;;;-141.97;83.89
7018;BME280;3549;42.162;24.726;2023-01-08T03:06:42;47615.19;;;-141.97;83.85
7018;BME280;3549;42.162;24.726;2023-01-08T03:09:09;47630.56;;;-141.97;83.40
7018;BME280;3549;42.162;24.726;2023-01-08T03:14:43;47749.72;;;-141.97;83.83
7018;BME280;3549;42.162;24.726;2023-01-08T03:17:15;47711.28;;;-141.97;83.53
7018;BME280;3549;42.162;24.726;2023-01-08T03:19:55;47695.91;;;-141.97;83.22
7018;BME280;3549;42.162;24.726;2023-01-08T03:22:23;47669.00;;;-141.97;83.75
7018;BME280;3549;42.162;24.726;2023-01-08T03:24:53;47599.81;;;-141.97;83.68
7018;BME280;3549;42.162;24.726;2023-01-08T03:27:24;47715.13;;;-141.97;84.11
7018;BME280;3549;42.162;24.726;2023-01-08T03:29:54;47722.81;;;-141.97;84.46
7018;BME280;3549;42.162;24.726;2023-01-08T03:32:26;47676.69;;;-141.97;84.54
7018;BME280;3549;42.162;24.726;2023-01-08T03:34:55;47655.53;;;-141.97;85.10
7018;BME280;3549;42.162;24.726;2023-01-08T03:37:28;47682.47;;;-141.97;84.92
7018;BME280;3549;42.162;24.726;2023-01-08T03:42:33;47715.13;;;-141.97;84.15
7018;BME280;3549;42.162;24.726;2023-01-08T03:45:00;47707.44;;;-141.97;83.94
7018;BME280;3549;42.162;24.726;2023-01-08T03:47:33;47672.84;;;-141.97;83.82
7018;BME280;3549;42.162;24.726;2023-01-08T03:50:01;47695.91;;;-141.97;83.86
7018;BME280;3549;42.162;24.726;2023-01-08T03:52:31;47595.97;;;-141.97;84.25
7018;BME280;3549;42.162;24.726;2023-01-08T03:54:57;47634.41;;;-141.97;84.54
7018;BME280;3549;42.162;24.726;2023-01-08T03:57:23;47640.16;;;-141.97;84.39
7018;BME280;3549;42.162;24.726;2023-01-08T03:59:48;47657.47;;;-141.97;84.45
7018;BME280;3549;42.162;24.726;2023-01-08T04:02:14;47753.56;;;-141.97;84.57
7018;BME280;3549;42.162;24.726;2023-01-08T04:04:40;47692.06;;;-141.97;84.17
7018;BME280;3549;42.162;24.726;2023-01-08T04:07:06;47722.81;;;-141.97;84.08
7018;BME280;3549;42.162;24.726;2023-01-08T04:09:32;47644.00;;;-141.97;83.62
7018;BME280;3549;42.162;24.726;2023-01-08T04:11:57;47692.06;;;-141.97;83.54
7018;BME280;3549;42.162;24.726;2023-01-08T04:14:23;47718.97;;;-141.97;83.05
7018;BME280;3549;42.162;24.726;2023-01-08T04:16:48;47619.03;;;-141.97;82.79
7018;BME280;3549;42.162;24.726;2023-01-08T04:19:14;47695.91;;;-141.97;82.33
7018;BME280;3549;42.162;24.726;2023-01-08T04:21:39;47640.16;;;-141.97;82.53
7018;BME280;3549;42.162;24.726;2023-01-08T04:24:05;47713.22;;;-141.97;81.99
7018;BME280;3549;42.162;24.726;2023-01-08T04:26:31;47707.44;;;-141.97;82.12
7018;BME280;3549;42.162;24.726;2023-01-08T04:28:56;47622.88;;;-141.97;82.10
7018;BME280;3549;42.162;24.726;2023-01-08T04:31:22;47674.78;;;-141.97;81.80
7018;BME280;3549;42.162;24.726;2023-01-08T04:33:47;47674.78;;;-141.97;81.29
7018;BME280;3549;42.162;24.726;2023-01-08T04:36:13;47653.63;;;-141.97;81.11
7018;BME280;3549;42.162;24.726;2023-01-08T04:38:39;47695.91;;;-141.97;81.13
7018;BME280;3549;42.162;24.726;2023-01-08T04:41:05;47751.66;;;-141.97;81.22
7018;BME280;3549;42.162;24.726;2023-01-08T04:43:31;47669.00;;;-141.97;81.20
7018;BME280;3549;42.162;24.726;2023-01-08T04:46:01;47661.31;;;-141.97;81.23
7018;BME280;3549;42.162;24.726;2023-01-08T04:48:28;47688.22;;;-141.97;81.45
7018;BME280;3549;42.162;24.726;2023-01-08T04:50:53;47672.84;;;-141.97;81.54
7018;BME280;3549;42.162;24.726;2023-01-08T04:53:21;47626.72;;;-141.97;81.44
7018;BME280;3549;42.162;24.726;2023-01-08T04:55:46;47734.34;;;-141.97;81.76
7018;BME280;3549;42.162;24.726;2023-01-08T04:58:12;47653.63;;;-141.97;82.24
7018;BME280;3549;42.162;24.726;2023-01-08T05:00:38;47630.56;;;-141.97;81.98
7018;BME280;3549;42.162;24.726;2023-01-08T05:03:04;47590.19;;;-141.97;82.06
7018;BME280;3549;42.162;24.726;2023-01-08T05:05:29;47676.69;;;-141.97;81.26
7018;BME280;3549;42.162;24.726;2023-01-08T05:07:55;47711.28;;;-141.97;81.43
7018;BME280;3549;42.162;24.726;2023-01-08T05:10:20;47682.47;;;-141.97;81.69
7018;BME280;3549;42.162;24.726;2023-01-08T05:12:46;47728.59;;;-141.97;82.21
7018;BME280;3549;42.162;24.726;2023-01-08T05:15:11;47728.59;;;-141.97;82.00
7018;BME280;3549;42.162;24.726;2023-01-08T05:17:36;47680.53;;;-141.97;82.27
7018;BME280;3549;42.162;24.726;2023-01-08T05:20:02;47697.84;;;-141.97;82.98
7018;BME280;3549;42.162;24.726;2023-01-08T05:22:28;47665.16;;;-141.97;83.58
7018;BME280;3549;42.162;24.726;2023-01-08T05:24:53;47615.19;;;-141.97;84.39
7018;BME280;3549;42.162;24.726;2023-01-08T05:27:18;47653.63;;;-141.97;85.25
7018;BME280;3549;42.162;24.726;2023-01-08T05:29:44;47740.13;;;-141.97;85.87
7018;BME280;3549;42.162;24.726;2023-01-08T05:32:16;47695.91;;;-141.97;85.91
7018;BME280;3549;42.162;24.726;2023-01-08T05:34:43;47682.47;;;-141.97;85.34
7018;BME280;3549;42.162;24.726;2023-01-08T05:37:08;47670.91;;;-141.97;85.79
7018;BME280;3549;42.162;24.726;2023-01-08T05:39:34;47699.75;;;-141.97;85.80
7018;BME280;3549;42.162;24.726;2023-01-08T05:42:00;47630.56;;;-141.97;85.48
7018;BME280;3549;42.162;24.726;2023-01-08T05:44:26;47749.72;;;-141.97;86.00
7018;BME280;3549;42.162;24.726;2023-01-08T05:46:52;47642.09;;;-141.97;85.91
7018;BME280;3549;42.162;24.726;2023-01-08T05:49:17;47747.81;;;-141.97;85.91
7018;BME280;3549;42.162;24.726;2023-01-08T05:51:43;47684.38;;;-141.97;86.58
7018;BME280;3549;42.162;24.726;2023-01-08T05:54:08;47669.00;;;-141.97;86.46
7018;BME280;3549;42.162;24.726;2023-01-08T05:56:34;47726.66;;;-141.97;86.82
7018;BME280;3549;42.162;24.726;2023-01-08T05:58:59;47747.81;;;-141.97;87.15
7018;BME280;3549;42.162;24.726;2023-01-08T06:01:24;47734.34;;;-141.97;87.27
7018;BME280;3549;42.162;24.726;2023-01-08T06:03:50;47713.22;;;-141.97;86.81
7018;BME280;3549;42.162;24.726;2023-01-08T06:06:15;47715.13;;;-141.97;86.63
7018;BME280;3549;42.162;24.726;2023-01-08T06:08:40;47730.50;;;-141.97;87.00
7018;BME280;3549;42.162;24.726;2023-01-08T06:11:07;47597.88;;;-141.97;87.37
7018;BME280;3549;42.162;24.726;2023-01-08T06:13:35;47757.41;;;-141.97;87.46
7018;BME280;3549;42.162;24.726;2023-01-08T06:16:02;47692.06;;;-141.97;87.32
7018;BME280;3549;42.162;24.726;2023-01-08T06:18:28;47661.31;;;-141.97;87.47
7018;BME280;3549;42.162;24.726;2023-01-08T06:20:54;47665.16;;;-141.97;87.67
7018;BME280;3549;42.162;24.726;2023-01-08T06:23:19;47755.50;;;-141.97;87.75
7018;BME280;3549;42.162;24.726;2023-01-08T06:25:50;47649.78;;;-141.97;87.75
7018;BME280;3549;42.162;24.726;2023-01-08T06:28:16;47680.53;;;-141.97;87.62
7018;BME280;3549;42.162;24.726;2023-01-08T06:30:41;47707.44;;;-141.97;87.43
7018;BME280;3549;42.162;24.726;2023-01-08T06:33:07;47690.16;;;-141.97;86.88
7018;BME280;3549;42.162;24.726;2023-01-08T06:35:32;47653.63;;;-141.97;86.16
7018;BME280;3549;42.162;24.726;2023-01-08T06:37:58;47676.69;;;-141.97;85.74
7018;BME280;3549;42.162;24.726;2023-01-08T06:40:23;47692.06;;;-141.97;84.43
7018;BME280;3549;42.162;24.726;2023-01-08T06:42:49;47680.53;;;-141.97;82.67
7018;BME280;3549;42.162;24.726;2023-01-08T06:45:14;47619.03;;;-141.97;81.14
7018;BME280;3549;42.162;24.726;2023-01-08T06:47:40;47669.00;;;-141.97;80.35
7018;BME280;3549;42.162;24.726;2023-01-08T06:50:06;47682.47;;;-141.97;79.32
7018;BME280;3549;42.162;24.726;2023-01-08T06:52:31;47686.31;;;-141.97;78.67
7018;BME280;3549;42.162;24.726;2023-01-08T06:54:57;47795.88;;;-141.97;78.70
7018;BME280;3549;42.162;24.726;2023-01-08T06:57:23;47757.41;;;-141.97;78.97
7018;BME280;3549;42.162;24.726;2023-01-08T06:59:48;47730.50;;;-141.97;78.33
7018;BME280;3549;42.162;24.726;2023-01-08T07:02:15;47697.84;;;-141.97;78.89
7018;BME280;3549;42.162;24.726;2023-01-08T07:04:41;47709.38;;;-141.97;78.88
7018;BME280;3549;42.162;24.726;2023-01-08T07:07:07;47688.22;;;-141.97;78.10
7018;BME280;3549;42.162;24.726;2023-01-08T07:09:33;47622.88;;;-141.97;76.66
7018;BME280;3549;42.162;24.726;2023-01-08T07:11:58;47747.81;;;-141.97;70.50
7018;BME280;3549;42.162;24.726;2023-01-08T07:14:24;47742.03;;;-141.97;60.61
7018;BME280;3549;42.162;24.726;2023-01-08T07:16:49;47657.47;;;-141.97;56.67
7018;BME280;3549;42.162;24.726;2023-01-08T07:19:15;47678.63;;;-141.97;53.52
7018;BME280;3549;42.162;24.726;2023-01-08T07:21:40;47630.56;;;-141.97;49.54
7018;BME280;3549;42.162;24.726;2023-01-08T07:24:06;47799.72;;;-141.97;48.11
7018;BME280;3549;42.162;24.726;2023-01-08T07:26:32;47601.72;;;-141.97;48.22
7018;BME280;3549;42.162;24.726;2023-01-08T07:28:57;47786.25;;;-141.97;48.88
7018;BME280;3549;42.162;24.726;2023-01-08T07:31:23;47665.16;;;-141.97;52.54
7018;BME280;3549;42.162;24.726;2023-01-08T07:33:48;47626.72;;;-141.97;57.11
7018;BME280;3549;42.162;24.726;2023-01-08T07:36:14;47690.16;;;-141.97;62.39
7018;BME280;3549;42.162;24.726;2023-01-08T07:38:41;47626.72;;;-141.97;66.85
7018;BME280;3549;42.162;24.726;2023-01-08T07:41:07;47603.66;;;-141.97;67.76
7018;BME280;3549;42.162;24.726;2023-01-08T07:43:32;47690.16;;;-141.97;69.72
7018;BME280;3549;42.162;24.726;2023-01-08T07:46:01;47697.84;;;-141.97;70.38
7018;BME280;3549;42.162;24.726;2023-01-08T07:48:27;47703.59;;;-141.97;69.77
7018;BME280;3549;42.162;24.726;2023-01-08T07:50:52;47669.00;;;-141.97;68.48
7018;BME280;3549;42.162;24.726;2023-01-08T07:53:18;47657.47;;;-141.97;68.36
7018;BME280;3549;42.162;24.726;2023-01-08T07:55:44;47717.06;;;-141.97;66.84
7018;BME280;3549;42.162;24.726;2023-01-08T07:58:11;47680.53;;;-141.97;66.05
7018;BME280;3549;42.162;24.726;2023-01-08T08:00:37;47728.59;;;-141.97;65.16
7018;BME280;3549;42.162;24.726;2023-01-08T08:03:04;47661.31;;;-141.97;65.29
7018;BME280;3549;42.162;24.726;2023-01-08T08:05:31;47676.69;;;-141.97;66.00
7018;BME280;3549;42.162;24.726;2023-01-08T08:07:57;47682.47;;;-141.97;64.30
7018;BME280;3549;42.162;24.726;2023-01-08T08:10:22;47730.50;;;-141.97;63.68
7018;BME280;3549;42.162;24.726;2023-01-08T08:12:47;47692.06;;;-141.97;62.87
7018;BME280;3549;42.162;24.726;2023-01-08T08:15:13;47659.38;;;-141.97;62.00
7018;BME280;3549;42.162;24.726;2023-01-08T08:17:38;47718.97;;;-141.97;62.10
7018;BME280;3549;42.162;24.726;2023-01-08T08:20:04;47738.19;;;-141.97;61.83
7018;BME280;3549;42.162;24.726;2023-01-08T08:22:29;47670.91;;;-141.97;61.74
7018;BME280;3549;42.162;24.726;2023-01-08T08:24:55;47682.47;;;-141.97;61.12
7018;BME280;3549;42.162;24.726;2023-01-08T08:27:20;47657.47;;;-141.97;60.34
7018;BME280;3549;42.162;24.726;2023-01-08T08:29:47;47690.16;;;-141.97;61.36
7018;BME280;3549;42.162;24.726;2023-01-08T08:32:13;47749.72;;;-141.97;61.32
7018;BME280;3549;42.162;24.726;2023-01-08T08:34:38;47720.91;;;-141.97;61.04
7018;BME280;3549;42.162;24.726;2023-01-08T08:37:04;47665.16;;;-141.97;60.16
7018;BME280;3549;42.162;24.726;2023-01-08T08:39:29;47649.78;;;-141.97;59.21
7018;BME280;3549;42.162;24.726;2023-01-08T08:41:54;47713.22;;;-141.97;58.60
7018;BME280;3549;42.162;24.726;2023-01-08T08:44:20;47624.78;;;-141.97;57.58
7018;BME280;3549;42.162;24.726;2023-01-08T08:46:45;47686.31;;;-141.97;57.70
7018;BME280;3549;42.162;24.726;2023-01-08T08:49:10;47718.97;;;-141.97;57.32
7018;BME280;3549;42.162;24.726;2023-01-08T08:51:36;47738.19;;;-141.97;56.29
7018;BME280;3549;42.162;24.726;2023-01-08T08:54:01;47678.63;;;-141.97;56.26
7018;BME280;3549;42.162;24.726;2023-01-08T08:56:27;47770.88;;;-141.97;57.64
7018;BME280;3549;42.162;24.726;2023-01-08T08:58:54;47688.22;;;-141.97;58.91
7018;BME280;3549;42.162;24.726;2023-01-08T09:01:19;47782.41;;;-141.97;58.94
7018;BME280;3549;42.162;24.726;2023-01-08T09:03:45;47611.34;;;-141.97;59.33
7018;BME280;3549;42.162;24.726;2023-01-08T09:06:14;47682.47;;;-141.97;59.03
7018;BME280;3549;42.162;24.726;2023-01-08T09:08:39;47574.81;;;-141.97;57.69
7018;BME280;3549;42.162;24.726;2023-01-08T09:11:05;47651.69;;;-141.97;56.91
7018;BME280;3549;42.162;24.726;2023-01-08T09:13:30;47803.56;;;-141.97;56.81
7018;BME280;3549;42.162;24.726;2023-01-08T09:15:59;47749.72;;;-141.97;56.34
7018;BME280;3549;42.162;24.726;2023-01-08T09:18:24;47594.03;;;-141.97;56.54
7018;BME280;3549;42.162;24.726;2023-01-08T09:20:50;47676.69;;;-141.97;55.90
7018;BME280;3549;42.162;24.726;2023-01-08T09:23:15;47788.19;;;-141.97;54.60
7018;BME280;3549;42.162;24.726;2023-01-08T09:25:41;47757.41;;;-141.97;53.76
7018;BME280;3549;42.162;24.726;2023-01-08T09:28:07;47711.28;;;-141.97;53.93
7018;BME280;3549;42.162;24.726;2023-01-08T09:30:36;47740.13;;;-141.97;53.40
7018;BME280;3549;42.162;24.726;2023-01-08T09:33:02;47686.31;;;-141.97;54.21
7018;BME280;3549;42.162;24.726;2023-01-08T09:35:28;47565.22;;;-141.97;53.44
7018;BME280;3549;42.162;24.726;2023-01-08T09:37:54;47663.22;;;-141.97;53.32
7018;BME280;3549;42.162;24.726;2023-01-08T09:40:31;47686.31;;;-141.97;52.48
7018;BME280;3549;42.162;24.726;2023-01-08T09:43:00;47751.66;;;-141.97;52.40
7018;BME280;3549;42.162;24.726;2023-01-08T09:45:29;47615.19;;;-141.97;52.00
7018;BME280;3549;42.162;24.726;2023-01-08T09:47:58;47684.38;;;-141.97;51.33
7018;BME280;3549;42.162;24.726;2023-01-08T09:50:27;47665.16;;;-141.97;51.26
7018;BME280;3549;42.162;24.726;2023-01-08T09:52:53;47651.69;;;-141.97;51.49
7018;BME280;3549;42.162;24.726;2023-01-08T09:55:19;47661.31;;;-141.97;51.31
7018;BME280;3549;42.162;24.726;2023-01-08T09:57:46;47684.38;;;-141.97;52.46
7018;BME280;3549;42.162;24.726;2023-01-08T10:00:27;47630.56;;;-141.97;51.76
7018;BME280;3549;42.162;24.726;2023-01-08T10:02:53;47607.50;;;-141.97;50.68
7018;BME280;3549;42.162;24.726;2023-01-08T10:05:19;47692.06;;;-141.97;50.54
7018;BME280;3549;42.162;24.726;2023-01-08T10:07:45;47642.09;;;-141.97;52.77
7018;BME280;3549;42.162;24.726;2023-01-08T10:10:27;47672.84;;;-141.97;51.88
7018;BME280;3549;42.162;24.726;2023-01-08T10:12:54;47672.84;;;-141.97;50.53
7018;BME280;3549;42.162;24.726;2023-01-08T10:15:20;47680.53;;;-141.97;49.31
7018;BME280;3549;42.162;24.726;2023-01-08T10:20:28;47684.38;;;-141.97;49.16
7018;BME280;3549;42.162;24.726;2023-01-08T10:22:53;47703.59;;;-141.97;49.88
7018;BME280;3549;42.162;24.726;2023-01-08T10:25:21;47642.09;;;-141.97;50.06
7018;BME280;3549;42.162;24.726;2023-01-08T10:27:57;47703.59;;;-141.97;49.74
7018;BME280;3549;42.162;24.726;2023-01-08T10:32:56;47630.56;;;-141.97;48.04
7018;BME280;3549;42.162;24.726;2023-01-08T10:35:34;47674.78;;;-141.97;49.26
7018;BME280;3549;42.162;24.726;2023-01-08T10:38:01;47653.63;;;-141.97;49.68
7018;BME280;3549;42.162;24.726;2023-01-08T10:40:44;47651.69;;;-141.97;50.03
7018;BME280;3549;42.162;24.726;2023-01-08T10:43:25;47674.78;;;-141.97;50.33
7018;BME280;3549;42.162;24.726;2023-01-08T10:46:05;47636.31;;;-141.97;50.09
7018;BME280;3549;42.162;24.726;2023-01-08T10:48:34;47615.19;;;-141.97;49.34
7018;BME280;3549;42.162;24.726;2023-01-08T10:51:17;47749.72;;;-141.97;48.82
7018;BME280;3549;42.162;24.726;2023-01-08T10:53:44;47701.69;;;-141.97;47.95
7018;BME280;3549;42.162;24.726;2023-01-08T10:56:21;47670.91;;;-141.97;48.03
7018;BME280;3549;42.162;24.726;2023-01-08T10:58:47;47630.56;;;-141.97;47.37
7018;BME280;3549;42.162;24.726;2023-01-08T11:01:27;47695.91;;;-141.97;46.87
7018;BME280;3549;42.162;24.726;2023-01-08T11:06:24;47632.47;;;-141.97;46.24
7018;BME280;3549;42.162;24.726;2023-01-08T11:08:59;47665.16;;;-141.97;46.63
7018;BME280;3549;42.162;24.726;2023-01-08T11:11:36;47705.53;;;-141.97;46.45
7018;BME280;3549;42.162;24.726;2023-01-08T11:14:05;47665.16;;;-141.97;46.40
7018;BME280;3549;42.162;24.726;2023-01-08T11:16:40;47680.53;;;-141.97;47.22
7018;BME280;3549;42.162;24.726;2023-01-08T11:19:16;47711.28;;;-141.97;46.64
7018;BME280;3549;42.162;24.726;2023-01-08T11:22:03;47728.59;;;-141.97;46.54
7018;BME280;3549;42.162;24.726;2023-01-08T11:24:34;47699.75;;;-141.97;46.15
7018;BME280;3549;42.162;24.726;2023-01-08T11:27:22;47667.06;;;-141.97;46.11
7018;BME280;3549;42.162;24.726;2023-01-08T11:30:04;47670.91;;;-141.97;46.40
7018;BME280;3549;42.162;24.726;2023-01-08T11:37:52;47665.16;;;-141.97;46.45
7018;BME280;3549;42.162;24.726;2023-01-08T11:40:43;47703.59;;;-141.97;47.39
7018;BME280;3549;42.162;24.726;2023-01-08T11:43:29;47695.91;;;-141.97;47.65
7018;BME280;3549;42.162;24.726;2023-01-08T11:57:59;47669.00;;;-141.97;48.23
7018;BME280;3549;42.162;24.726;2023-01-08T12:11:28;47661.31;;;-141.97;48.22
7018;BME280;3549;42.162;24.726;2023-01-08T12:22:33;47669.00;;;-141.97;49.00
7018;BME280;3549;42.162;24.726;2023-01-08T12:25:19;47695.91;;;-141.97;48.93
7018;BME280;3549;42.162;24.726;2023-01-08T12:35:46;47655.53;;;-141.97;47.66
7018;BME280;3549;42.162;24.726;2023-01-08T12:38:41;47663.22;;;-141.97;47.40
7018;BME280;3549;42.162;24.726;2023-01-08T12:41:27;47649.78;;;-141.97;47.02
7018;BME280;3549;42.162;24.726;2023-01-08T12:44:04;47670.91;;;-141.97;47.08
7018;BME280;3549;42.162;24.726;2023-01-08T12:46:36;47676.69;;;-141.97;46.82
7018;BME280;3549;42.162;24.726;2023-01-08T12:49:04;47788.19;;;-141.97;45.95
7018;BME280;3549;42.162;24.726;2023-01-08T12:56:45;47697.84;;;-141.97;45.68
7018;BME280;3549;42.162;24.726;2023-01-08T13:04:42;47709.38;;;-141.97;45.28
7018;BME280;3549;42.162;24.726;2023-01-08T13:09:42;47672.84;;;-141.97;45.55
7018;BME280;3549;42.162;24.726;2023-01-08T13:12:12;47684.38;;;-141.97;46.39
7018;BME280;3549;42.162;24.726;2023-01-08T13:14:46;47692.06;;;-141.97;46.49
7018;BME280;3549;42.162;24.726;2023-01-08T13:17:17;47672.84;;;-141.97;45.69
7018;BME280;3549;42.162;24.726;2023-01-08T13:19:51;47649.78;;;-141.97;45.50
7018;BME280;3549;42.162;24.726;2023-01-08T13:22:26;47688.22;;;-141.97;44.85
7018;BME280;3549;42.162;24.726;2023-01-08T13:27:45;47697.84;;;-141.97;44.91
7018;BME280;3549;42.162;24.726;2023-01-08T13:32:55;47801.63;;;-141.97;44.66
7018;BME280;3549;42.162;24.726;2023-01-08T13:35:27;47684.38;;;-141.97;44.91
7018;BME280;3549;42.162;24.726;2023-01-08T13:46:04;47699.75;;;-141.97;45.05
7018;BME280;3549;42.162;24.726;2023-01-08T13:48:39;47818.94;;;-141.97;45.45
7018;BME280;3549;42.162;24.726;2023-01-08T13:51:41;47676.69;;;-141.97;45.79
7018;BME280;3549;42.162;24.726;2023-01-08T13:56:35;47632.47;;;-141.97;45.38
7018;BME280;3549;42.162;24.726;2023-01-08T13:59:01;47749.72;;;-141.97;45.10
7018;BME280;3549;42.162;24.726;2023-01-08T14:01:26;47665.16;;;-141.97;44.74
7018;BME280;3549;42.162;24.726;2023-01-08T14:03:52;47776.63;;;-141.97;44.70
7018;BME280;3549;42.162;24.726;2023-01-08T14:06:25;47647.84;;;-141.97;45.12
7018;BME280;3549;42.162;24.726;2023-01-08T14:11:19;47697.84;;;-141.97;45.73
7018;BME280;3549;42.162;24.726;2023-01-08T14:13:44;47734.34;;;-141.97;45.93
7018;BME280;3549;42.162;24.726;2023-01-08T14:16:13;47692.06;;;-141.97;46.21
7018;BME280;3549;42.162;24.726;2023-01-08T14:18:43;47659.38;;;-141.97;46.39
7018;BME280;3549;42.162;24.726;2023-01-08T14:21:10;47586.34;;;-141.97;46.67
7018;BME280;3549;42.162;24.726;2023-01-08T14:23:39;47655.53;;;-141.97;47.07
7018;BME280;3549;42.162;24.726;2023-01-08T14:26:07;47684.38;;;-141.97;47.11
7018;BME280;3549;42.162;24.726;2023-01-08T14:28:49;47745.88;;;-141.97;47.60
7018;BME280;3549;42.162;24.726;2023-01-08T14:31:20;47788.19;;;-141.97;47.71
7018;BME280;3549;42.162;24.726;2023-01-08T14:33:47;47667.06;;;-141.97;47.81